sensor_id;sensor_type;location;lat;lon;timestamp;pressure;altitude;pressure_sealevel;temperature;humidity
64886;BME280;51514;52.206;5.114;2024-03-02T00:00:54;99792.66;;;9.84;74.85
64886;BME280;51514;52.206;5.114;2024-03-02T00:03:19;99790.50;;;9.79;74.27
64886;BME280;51514;52.206;5.114;2024-03-02T00:05:49;99805.63;;;9.80;74.62
64886;BME280;51514;52.206;5.114;2024-03-02T00:08:22;99805.50;;;9.74;74.25
64886;BME280;51514;52.206;5.114;2024-03-02T00:10:49;99820.34;;;9.70;73.62
64886;BME280;51514;52.206;5.114;2024-03-02T00:13:14;99844.00;;;9.74;74.78
64886;BME280;51514;52.206;5.114;2024-03-02T00:18:13;99868.34;;;9.58;74.62
64886;BME280;51514;52.206;5.114;2024-03-02T00:20:40;99893.00;;;9.70;76.26
64886;BME280;51514;52.206;5.114;2024-03-02T00:23:09;99884.00;;;9.55;77.96
64886;BME280;51514;52.206;5.114;2024-03-02T00:25:39;99903.34;;;9.58;78.76
64886;BME280;51514;52.206;5.114;2024-03-02T00:28:13;99897.66;;;9.45;79.75
64886;BME280;51514;52.206;5.114;2024-03-02T00:33:20;99885.56;;;9.49;79.97
64886;BME280;51514;52.206;5.114;2024-03-02T00:35:46;99887.75;;;9.45;80.63
64886;BME280;51514;52.206;5.114;2024-03-02T00:38:12;99907.94;;;9.41;81.63
64886;BME280;51514;52.206;5.114;2024-03-02T00:40:39;99902.75;;;9.40;81.64
64886;BME280;51514;52.206;5.114;2024-03-02T00:43:05;99902.06;;;9.38;82.78
64886;BME280;51514;52.206;5.114;2024-03-02T00:45:30;99895.84;;;9.37;82.36
64886;BME280;51514;52.206;5.114;2024-03-02T00:47:56;99906.66;;;9.21;83.55
64886;BME280;51514;52.206;5.114;2024-03-02T00:50:22;99902.81;;;9.15;84.82
64886;BME280;51514;52.206;5.114;2024-03-02T00:52:47;99906.22;;;9.01;85.35
64886;BME280;51514;52.206;5.114;2024-03-02T00:55:16;99906.84;;;9.11;84.65
64886;BME280;51514;52.206;5.114;2024-03-02T00:57:41;99911.25;;;9.04;85.79
64886;BME280;51514;52.206;5.114;2024-03-02T01:00:07;99910.75;;;9.01;85.85
64886;BME280;51514;52.206;5.114;2024-03-02T01:02:35;99916.66;;;8.96;86.65
64886;BME280;51514;52.206;5.114;2024-03-02T01:05:01;99910.59;;;9.02;86.02
64886;BME280;51514;52.206;5.114;2024-03-02T01:07:26;99909.09;;;8.92;86.34
64886;BME280;51514;52.206;5.114;2024-03-02T01:09:51;99914.97;;;8.87;86.92
64886;BME280;51514;52.206;5.114;2024-03-02T01:12:17;99894.66;;;8.85;86.09
64886;BME280;51514;52.206;5.114;2024-03-02T01:14:42;99904.22;;;8.87;86.01
64886;BME280;51514;52.206;5.114;2024-03-02T01:17:07;99917.34;;;8.82;86.30
64886;BME280;51514;52.206;5.114;2024-03-02T01:19:33;99926.41;;;8.81;86.23
64886;BME280;51514;52.206;5.114;2024-03-02T01:21:58;99925.41;;;8.82;86.68
64886;BME280;51514;52.206;5.114;2024-03-02T01:24:24;99921.53;;;8.76;87.13
64886;BME280;51514;52.206;5.114;2024-03-02T01:26:49;99926.41;;;8.81;86.70
64886;BME280;51514;52.206;5.114;2024-03-02T01:29:14;99936.84;;;8.84;86.48
64886;BME280;51514;52.206;5.114;2024-03-02T01:31:40;99932.47;;;8.83;87.00
64886;BME280;51514;52.206;5.114;2024-03-02T01:34:07;99922.22;;;8.78;86.53
64886;BME280;51514;52.206;5.114;2024-03-02T01:36:33;99924.41;;;8.83;86.77
64886;BME280;51514;52.206;5.114;2024-03-02T01:38:58;99931.13;;;8.71;87.22
64886;BME280;51514;52.206;5.114;2024-03-02T01:41:24;99933.13;;;8.77;87.64
64886;BME280;51514;52.206;5.114;2024-03-02T01:43:49;99925.56;;;8.81;86.75
64886;BME280;51514;52.206;5.114;2024-03-02T01:46:14;99919.03;;;8.83;87.38
64886;BME280;51514;52.206;5.114;2024-03-02T01:48:40;99925.44;;;8.74;87.89
64886;BME280;51514;52.206;5.114;2024-03-02T01:51:06;99938.19;;;8.72;87.74
64886;BME280;51514;52.206;5.114;2024-03-02T01:53:32;99931.81;;;8.73;87.97
64886;BME280;51514;52.206;5.114;2024-03-02T01:55:57;99947.25;;;8.71;88.14
64886;BME280;51514;52.206;5.114;2024-03-02T01:58:22;99958.69;;;8.65;88.34
64886;BME280;51514;52.206;5.114;2024-03-02T02:00:48;99950.09;;;8.69;88.63
64886;BME280;51514;52.206;5.114;2024-03-02T02:03:14;99949.59;;;8.66;87.77
64886;BME280;51514;52.206;5.114;2024-03-02T02:05:41;99940.38;;;8.60;88.87
64886;BME280;51514;52.206;5.114;2024-03-02T02:08:07;99944.91;;;8.68;88.57
64886;BME280;51514;52.206;5.114;2024-03-02T02:10:32;99939.38;;;8.53;88.74
64886;BME280;51514;52.206;5.114;2024-03-02T02:12:58;99939.84;;;8.57;88.21
64886;BME280;51514;52.206;5.114;2024-03-02T02:17:49;99948.25;;;8.46;89.18
64886;BME280;51514;52.206;5.114;2024-03-02T02:20:14;99948.28;;;8.54;88.09
64886;BME280;51514;52.206;5.114;2024-03-02T02:22:39;99947.59;;;8.52;88.30
64886;BME280;51514;52.206;5.114;2024-03-02T02:25:05;99933.81;;;8.47;87.97
64886;BME280;51514;52.206;5.114;2024-03-02T02:27:31;99935.19;;;8.43;88.17
64886;BME280;51514;52.206;5.114;2024-03-02T02:29:56;99930.81;;;8.41;87.63
64886;BME280;51514;52.206;5.114;2024-03-02T02:32:21;99926.09;;;8.52;87.62
64886;BME280;51514;52.206;5.114;2024-03-02T02:34:47;99937.50;;;8.46;87.42
64886;BME280;51514;52.206;5.114;2024-03-02T02:37:17;99944.56;;;8.47;87.46
64886;BME280;51514;52.206;5.114;2024-03-02T02:39:42;99942.88;;;8.37;87.30
64886;BME280;51514;52.206;5.114;2024-03-02T02:42:08;99953.47;;;8.39;87.85
64886;BME280;51514;52.206;5.114;2024-03-02T02:44:34;99939.53;;;8.35;87.94
64886;BME280;51514;52.206;5.114;2024-03-02T02:46:59;99945.25;;;8.40;87.69
64886;BME280;51514;52.206;5.114;2024-03-02T02:49:24;99955.63;;;8.35;86.97
64886;BME280;51514;52.206;5.114;2024-03-02T02:51:50;99951.75;;;8.30;87.85
64886;BME280;51514;52.206;5.114;2024-03-02T02:54:15;99945.53;;;8.29;87.66
64886;BME280;51514;52.206;5.114;2024-03-02T02:56:41;99945.38;;;8.31;87.75
64886;BME280;51514;52.206;5.114;2024-03-02T02:59:06;99960.63;;;8.22;88.50
64886;BME280;51514;52.206;5.114;2024-03-02T03:01:32;99954.31;;;8.31;88.02
64886;BME280;51514;52.206;5.114;2024-03-02T03:03:57;99950.25;;;8.35;87.33
64886;BME280;51514;52.206;5.114;2024-03-02T03:06:23;99945.56;;;8.37;87.38
64886;BME280;51514;52.206;5.114;2024-03-02T03:08:48;99959.84;;;8.38;87.40
64886;BME280;51514;52.206;5.114;2024-03-02T03:11:14;99957.16;;;8.38;87.09
64886;BME280;51514;52.206;5.114;2024-03-02T03:13:39;99954.94;;;8.33;87.72
64886;BME280;51514;52.206;5.114;2024-03-02T03:16:05;99953.63;;;8.37;87.26
64886;BME280;51514;52.206;5.114;2024-03-02T03:18:30;99953.47;;;8.39;87.21
64886;BME280;51514;52.206;5.114;2024-03-02T03:20:56;99951.63;;;8.39;86.98
64886;BME280;51514;52.206;5.114;2024-03-02T03:23:21;99961.69;;;8.37;86.95
64886;BME280;51514;52.206;5.114;2024-03-02T03:25:46;99953.31;;;8.40;86.91
64886;BME280;51514;52.206;5.114;2024-03-02T03:28:12;99960.53;;;8.40;86.53
64886;BME280;51514;52.206;5.114;2024-03-02T03:30:38;99964.53;;;8.36;86.37
64886;BME280;51514;52.206;5.114;2024-03-02T03:33:03;99961.38;;;8.40;85.62
64886;BME280;51514;52.206;5.114;2024-03-02T03:35:31;99954.63;;;8.45;85.88
64886;BME280;51514;52.206;5.114;2024-03-02T03:37:57;99965.06;;;8.39;85.90
64886;BME280;51514;52.206;5.114;2024-03-02T03:40:22;99965.91;;;8.40;85.63
64886;BME280;51514;52.206;5.114;2024-03-02T03:42:47;99969.91;;;8.36;86.16
64886;BME280;51514;52.206;5.114;2024-03-02T03:45:14;99973.44;;;8.45;85.38
64886;BME280;51514;52.206;5.114;2024-03-02T03:47:39;99983.13;;;8.21;86.32
64886;BME280;51514;52.206;5.114;2024-03-02T03:50:05;99974.63;;;8.42;85.04
64886;BME280;51514;52.206;5.114;2024-03-02T03:52:32;99978.66;;;8.38;85.27
64886;BME280;51514;52.206;5.114;2024-03-02T03:54:58;99988.53;;;8.37;85.71
64886;BME280;51514;52.206;5.114;2024-03-02T03:57:23;99988.53;;;8.37;84.94
64886;BME280;51514;52.206;5.114;2024-03-02T03:59:48;99990.22;;;8.38;85.63
64886;BME280;51514;52.206;5.114;2024-03-02T04:02:14;99990.06;;;8.40;85.96
64886;BME280;51514;52.206;5.114;2024-03-02T04:04:39;99991.06;;;8.39;85.75
64886;BME280;51514;52.206;5.114;2024-03-02T04:07:04;99993.09;;;8.45;85.05
64886;BME280;51514;52.206;5.114;2024-03-02T04:09:30;99989.56;;;8.45;85.47
64886;BME280;51514;52.206;5.114;2024-03-02T04:11:55;99996.97;;;8.43;85.57
64886;BME280;51514;52.206;5.114;2024-03-02T04:14:20;99995.44;;;8.40;85.94
64886;BME280;51514;52.206;5.114;2024-03-02T04:16:46;100004.50;;;8.47;85.63
64886;BME280;51514;52.206;5.114;2024-03-02T04:19:11;99990.38;;;8.45;85.32
64886;BME280;51514;52.206;5.114;2024-03-02T04:21:37;100003.50;;;8.40;86.13
64886;BME280;51514;52.206;5.114;2024-03-02T04:24:02;99995.59;;;8.47;85.43
64886;BME280;51514;52.206;5.114;2024-03-02T04:26:28;99994.28;;;8.51;84.80
64886;BME280;51514;52.206;5.114;2024-03-02T04:28:54;99993.59;;;8.40;84.88
64886;BME280;51514;52.206;5.114;2024-03-02T04:31:19;99992.91;;;8.47;84.16
64886;BME280;51514;52.206;5.114;2024-03-02T04:33:45;99994.28;;;8.43;84.67
64886;BME280;51514;52.206;5.114;2024-03-02T04:36:10;99995.28;;;8.41;84.10
64886;BME280;51514;52.206;5.114;2024-03-02T04:38:36;100001.81;;;8.39;83.65
64886;BME280;51514;52.206;5.114;2024-03-02T04:41:02;100006.19;;;8.32;84.45
64886;BME280;51514;52.206;5.114;2024-03-02T04:43:27;100005.16;;;8.33;84.34
64886;BME280;51514;52.206;5.114;2024-03-02T04:45:52;100005.47;;;8.30;84.21
64886;BME280;51514;52.206;5.114;2024-03-02T04:48:25;99999.53;;;8.10;84.00
64886;BME280;51514;52.206;5.114;2024-03-02T04:50:52;100010.47;;;8.17;84.45
64886;BME280;51514;52.206;5.114;2024-03-02T04:53:18;100007.41;;;8.12;84.75
64886;BME280;51514;52.206;5.114;2024-03-02T04:55:43;100021.69;;;8.12;83.98
64886;BME280;51514;52.206;5.114;2024-03-02T04:58:08;100023.72;;;8.10;84.00
64886;BME280;51514;52.206;5.114;2024-03-02T05:00:34;100028.72;;;8.05;84.42
64886;BME280;51514;52.206;5.114;2024-03-02T05:03:00;100032.25;;;8.05;84.71
64886;BME280;51514;52.206;5.114;2024-03-02T05:05:26;100031.25;;;8.06;84.34
64886;BME280;51514;52.206;5.114;2024-03-02T05:07:52;100036.25;;;8.01;84.42
64886;BME280;51514;52.206;5.114;2024-03-02T05:10:17;100027.72;;;8.06;84.38
64886;BME280;51514;52.206;5.114;2024-03-02T05:12:42;100030.72;;;8.03;84.68
64886;BME280;51514;52.206;5.114;2024-03-02T05:15:12;100021.13;;;8.00;84.41
64886;BME280;51514;52.206;5.114;2024-03-02T05:17:37;100032.19;;;7.89;84.50
64886;BME280;51514;52.206;5.114;2024-03-02T05:20:04;100038.91;;;7.93;84.44
64886;BME280;51514;52.206;5.114;2024-03-02T05:22:30;100031.00;;;7.92;84.42
64886;BME280;51514;52.206;5.114;2024-03-02T05:24:55;100035.03;;;7.88;84.62
64886;BME280;51514;52.206;5.114;2024-03-02T05:27:21;100037.72;;;7.88;84.49
64886;BME280;51514;52.206;5.114;2024-03-02T05:29:47;100046.09;;;7.85;83.99
64886;BME280;51514;52.206;5.114;2024-03-02T05:32:12;100046.41;;;7.82;83.91
64886;BME280;51514;52.206;5.114;2024-03-02T05:34:38;100035.47;;;7.75;84.01
64886;BME280;51514;52.206;5.114;2024-03-02T05:37:03;100042.84;;;7.73;83.91
64886;BME280;51514;52.206;5.114;2024-03-02T05:39:28;100050.34;;;7.69;83.80
64886;BME280;51514;52.206;5.114;2024-03-02T05:41:54;100051.00;;;7.63;83.99
64886;BME280;51514;52.206;5.114;2024-03-02T05:44:19;100058.38;;;7.61;84.28
64886;BME280;51514;52.206;5.114;2024-03-02T05:46:45;100053.16;;;7.60;83.95
64886;BME280;51514;52.206;5.114;2024-03-02T05:49:10;100058.69;;;7.58;83.54
64886;BME280;51514;52.206;5.114;2024-03-02T05:51:36;100060.00;;;7.54;83.95
64886;BME280;51514;52.206;5.114;2024-03-02T05:54:01;100060.00;;;7.54;84.07
64886;BME280;51514;52.206;5.114;2024-03-02T05:56:27;100052.97;;;7.53;83.94
64886;BME280;51514;52.206;5.114;2024-03-02T05:58:52;100064.00;;;7.50;84.51
64886;BME280;51514;52.206;5.114;2024-03-02T06:01:36;100062.69;;;7.54;83.65
64886;BME280;51514;52.206;5.114;2024-03-02T06:04:02;100063.16;;;7.50;84.31
64886;BME280;51514;52.206;5.114;2024-03-02T06:06:27;100064.31;;;7.47;84.37
64886;BME280;51514;52.206;5.114;2024-03-02T06:08:53;100073.03;;;7.49;84.29
64886;BME280;51514;52.206;5.114;2024-03-02T06:11:21;100067.94;;;7.38;84.54
64886;BME280;51514;52.206;5.114;2024-03-02T06:13:47;100076.41;;;7.51;84.12
64886;BME280;51514;52.206;5.114;2024-03-02T06:16:12;100074.72;;;7.50;84.15
64886;BME280;51514;52.206;5.114;2024-03-02T06:18:37;100075.47;;;7.60;84.24
64886;BME280;51514;52.206;5.114;2024-03-02T06:21:03;100071.47;;;7.64;84.07
64886;BME280;51514;52.206;5.114;2024-03-02T06:23:29;100074.66;;;7.68;83.98
64886;BME280;51514;52.206;5.114;2024-03-02T06:25:54;100071.66;;;7.71;83.33
64886;BME280;51514;52.206;5.114;2024-03-02T06:28:20;100082.25;;;7.73;82.89
64886;BME280;51514;52.206;5.114;2024-03-02T06:30:45;100082.63;;;7.78;83.41
64886;BME280;51514;52.206;5.114;2024-03-02T06:33:11;100088.00;;;7.78;83.56
64886;BME280;51514;52.206;5.114;2024-03-02T06:35:36;100082.94;;;7.75;83.63
64886;BME280;51514;52.206;5.114;2024-03-02T06:38:02;100091.97;;;7.74;83.01
64886;BME280;51514;52.206;5.114;2024-03-02T06:40:27;100088.00;;;7.78;83.02
64886;BME280;51514;52.206;5.114;2024-03-02T06:42:53;100096.19;;;7.76;83.51
64886;BME280;51514;52.206;5.114;2024-03-02T06:45:18;100097.72;;;7.79;82.96
64886;BME280;51514;52.206;5.114;2024-03-02T06:47:44;100111.16;;;7.79;83.61
64886;BME280;51514;52.206;5.114;2024-03-02T06:50:09;100104.44;;;7.83;83.29
64886;BME280;51514;52.206;5.114;2024-03-02T06:52:35;100097.75;;;7.87;82.59
64886;BME280;51514;52.206;5.114;2024-03-02T06:55:01;100099.63;;;7.94;82.65
64886;BME280;51514;52.206;5.114;2024-03-02T06:57:26;100093.97;;;7.97;81.71
64886;BME280;51514;52.206;5.114;2024-03-02T06:59:52;100095.00;;;8.04;81.44
64886;BME280;51514;52.206;5.114;2024-03-02T07:02:22;100097.81;;;8.03;81.36
64886;BME280;51514;52.206;5.114;2024-03-02T07:04:48;100098.81;;;8.02;80.42
64886;BME280;51514;52.206;5.114;2024-03-02T07:07:14;100098.88;;;8.10;80.44
64886;BME280;51514;52.206;5.114;2024-03-02T07:09:39;100099.88;;;8.09;80.56
64886;BME280;51514;52.206;5.114;2024-03-02T07:12:05;100095.91;;;8.21;80.16
64886;BME280;51514;52.206;5.114;2024-03-02T07:14:30;100100.00;;;8.33;79.17
64886;BME280;51514;52.206;5.114;2024-03-02T07:17:14;100102.03;;;8.39;78.26
64886;BME280;51514;52.206;5.114;2024-03-02T07:19:39;100104.09;;;8.54;77.99
64886;BME280;51514;52.206;5.114;2024-03-02T07:22:08;100101.75;;;8.59;77.24
64886;BME280;51514;52.206;5.114;2024-03-02T07:24:39;100105.28;;;8.59;77.65
64886;BME280;51514;52.206;5.114;2024-03-02T07:27:06;100109.19;;;8.73;76.72
64886;BME280;51514;52.206;5.114;2024-03-02T07:29:31;100110.19;;;8.88;76.41
64886;BME280;51514;52.206;5.114;2024-03-02T07:31:57;100118.97;;;9.06;76.36
64886;BME280;51514;52.206;5.114;2024-03-02T07:34:22;100127.06;;;9.14;74.56
64886;BME280;51514;52.206;5.114;2024-03-02T07:36:47;100117.47;;;9.12;74.14
64886;BME280;51514;52.206;5.114;2024-03-02T07:39:13;100135.44;;;9.11;74.60
64886;BME280;51514;52.206;5.114;2024-03-02T07:41:38;100129.06;;;9.04;74.43
64886;BME280;51514;52.206;5.114;2024-03-02T07:44:03;100138.13;;;9.03;74.04
64886;BME280;51514;52.206;5.114;2024-03-02T07:46:29;100122.84;;;9.12;73.53
64886;BME280;51514;52.206;5.114;2024-03-02T07:48:54;100131.25;;;9.17;73.90
64886;BME280;51514;52.206;5.114;2024-03-02T07:51:20;100127.69;;;8.92;74.67
64886;BME280;51514;52.206;5.114;2024-03-02T07:53:45;100132.91;;;9.02;74.33
64886;BME280;51514;52.206;5.114;2024-03-02T07:56:10;100141.50;;;8.97;73.87
64886;BME280;51514;52.206;5.114;2024-03-02T07:58:36;100145.66;;;8.92;74.54
64886;BME280;51514;52.206;5.114;2024-03-02T08:01:02;100139.44;;;8.91;74.56
64886;BME280;51514;52.206;5.114;2024-03-02T08:03:27;100140.97;;;8.94;73.82
64886;BME280;51514;52.206;5.114;2024-03-02T08:05:52;100144.69;;;9.09;73.88
64886;BME280;51514;52.206;5.114;2024-03-02T08:08:18;100146.03;;;9.21;74.13
64886;BME280;51514;52.206;5.114;2024-03-02T08:10:44;100142.69;;;9.51;72.93
64886;BME280;51514;52.206;5.114;2024-03-02T08:13:09;100138.75;;;9.86;71.95
64886;BME280;51514;52.206;5.114;2024-03-02T08:15:34;100145.09;;;10.26;70.60
64886;BME280;51514;52.206;5.114;2024-03-02T08:18:00;100146.69;;;10.43;69.84
64886;BME280;51514;52.206;5.114;2024-03-02T08:20:25;100141.88;;;10.70;69.64
64886;BME280;51514;52.206;5.114;2024-03-02T08:22:51;100143.78;;;10.84;69.18
64886;BME280;51514;52.206;5.114;2024-03-02T08:25:16;100141.00;;;11.00;66.85
64886;BME280;51514;52.206;5.114;2024-03-02T08:27:42;100132.91;;;11.00;66.55
64886;BME280;51514;52.206;5.114;2024-03-02T08:30:08;100140.22;;;11.14;67.24
64886;BME280;51514;52.206;5.114;2024-03-02T08:32:35;100142.38;;;11.19;66.41
64886;BME280;51514;52.206;5.114;2024-03-02T08:35:01;100127.97;;;11.26;64.41
64886;BME280;51514;52.206;5.114;2024-03-02T08:37:26;100134.56;;;11.47;64.10
64886;BME280;51514;52.206;5.114;2024-03-02T08:39:51;100123.63;;;11.63;64.81
64886;BME280;51514;52.206;5.114;2024-03-02T08:42:17;100123.09;;;11.67;63.84
64886;BME280;51514;52.206;5.114;2024-03-02T08:44:42;100125.75;;;11.76;64.16
64886;BME280;51514;52.206;5.114;2024-03-02T08:47:08;100128.09;;;11.79;63.68
64886;BME280;51514;52.206;5.114;2024-03-02T08:49:34;100123.88;;;11.76;61.76
64886;BME280;51514;52.206;5.114;2024-03-02T08:51:59;100134.44;;;11.63;62.42
64886;BME280;51514;52.206;5.114;2024-03-02T08:54:24;100131.81;;;11.55;63.90
64886;BME280;51514;52.206;5.114;2024-03-02T08:56:50;100117.34;;;11.48;64.69
64886;BME280;51514;52.206;5.114;2024-03-02T08:59:16;100129.66;;;11.50;63.81
64886;BME280;51514;52.206;5.114;2024-03-02T09:01:41;100129.47;;;11.52;63.64
64886;BME280;51514;52.206;5.114;2024-03-02T09:04:07;100130.56;;;11.43;64.23
64886;BME280;51514;52.206;5.114;2024-03-02T09:06:36;100134.47;;;11.40;64.04
64886;BME280;51514;52.206;5.114;2024-03-02T09:09:01;100135.41;;;11.47;65.12
64886;BME280;51514;52.206;5.114;2024-03-02T09:11:26;100141.91;;;11.38;64.43
64886;BME280;51514;52.206;5.114;2024-03-02T09:13:52;100141.28;;;11.51;64.31
64886;BME280;51514;52.206;5.114;2024-03-02T09:16:18;100140.38;;;11.58;63.03
64886;BME280;51514;52.206;5.114;2024-03-02T09:18:43;100149.31;;;11.59;62.93
64886;BME280;51514;52.206;5.114;2024-03-02T09:21:09;100158.84;;;11.69;64.39
64886;BME280;51514;52.206;5.114;2024-03-02T09:23:35;100153.84;;;11.81;63.78
64886;BME280;51514;52.206;5.114;2024-03-02T09:26:00;100165.06;;;11.93;63.72
64886;BME280;51514;52.206;5.114;2024-03-02T09:28:26;100162.03;;;12.11;62.33
64886;BME280;51514;52.206;5.114;2024-03-02T09:30:51;100167.06;;;12.28;59.09
64886;BME280;51514;52.206;5.114;2024-03-02T09:33:16;100171.63;;;12.28;60.90
64886;BME280;51514;52.206;5.114;2024-03-02T09:35:42;100159.03;;;12.35;60.14
64886;BME280;51514;52.206;5.114;2024-03-02T09:38:07;100164.59;;;12.33;59.22
64886;BME280;51514;52.206;5.114;2024-03-02T09:40:32;100162.19;;;12.38;57.96
64886;BME280;51514;52.206;5.114;2024-03-02T09:42:58;100153.13;;;12.61;58.65
64886;BME280;51514;52.206;5.114;2024-03-02T09:45:25;100159.59;;;12.96;57.23
64886;BME280;51514;52.206;5.114;2024-03-02T09:47:50;100159.72;;;13.09;56.52
64886;BME280;51514;52.206;5.114;2024-03-02T09:50:16;100155.41;;;13.29;55.62
64886;BME280;51514;52.206;5.114;2024-03-02T09:52:42;100161.72;;;13.36;55.39
64886;BME280;51514;52.206;5.114;2024-03-02T09:55:08;100158.88;;;13.44;55.80
64886;BME280;51514;52.206;5.114;2024-03-02T09:57:34;100153.69;;;13.71;54.17
64886;BME280;51514;52.206;5.114;2024-03-02T09:59:59;100150.63;;;14.08;54.57
64886;BME280;51514;52.206;5.114;2024-03-02T10:02:25;100156.34;;;14.48;52.31
64886;BME280;51514;52.206;5.114;2024-03-02T10:04:51;100150.34;;;14.59;51.48
64886;BME280;51514;52.206;5.114;2024-03-02T10:07:19;100150.66;;;14.90;50.57
64886;BME280;51514;52.206;5.114;2024-03-02T10:09:46;100148.59;;;14.92;49.33
64886;BME280;51514;52.206;5.114;2024-03-02T10:12:14;100155.56;;;15.21;48.23
64886;BME280;51514;52.206;5.114;2024-03-02T10:14:42;100142.16;;;15.20;48.02
64886;BME280;51514;52.206;5.114;2024-03-02T10:17:09;100146.91;;;14.98;48.39
64886;BME280;51514;52.206;5.114;2024-03-02T10:19:36;100148.22;;;15.15;49.34
64886;BME280;51514;52.206;5.114;2024-03-02T10:22:06;100161.44;;;15.51;48.50
64886;BME280;51514;52.206;5.114;2024-03-02T10:24:44;100150.53;;;15.18;48.07
64886;BME280;51514;52.206;5.114;2024-03-02T10:27:27;100145.94;;;15.19;47.16
64886;BME280;51514;52.206;5.114;2024-03-02T10:29:52;100157.00;;;15.17;48.66
64886;BME280;51514;52.206;5.114;2024-03-02T10:32:22;100144.00;;;15.06;49.49
64886;BME280;51514;52.206;5.114;2024-03-02T10:34:47;100141.59;;;15.44;47.14
64886;BME280;51514;52.206;5.114;2024-03-02T10:37:13;100147.06;;;15.70;47.07
64886;BME280;51514;52.206;5.114;2024-03-02T10:39:40;100137.03;;;15.64;47.03
64886;BME280;51514;52.206;5.114;2024-03-02T10:42:06;100134.28;;;15.97;46.14
64886;BME280;51514;52.206;5.114;2024-03-02T10:44:32;100134.78;;;16.65;44.06
64886;BME280;51514;52.206;5.114;2024-03-02T10:47:03;100127.22;;;16.67;45.29
64886;BME280;51514;52.206;5.114;2024-03-02T10:49:30;100130.19;;;16.53;45.82
64886;BME280;51514;52.206;5.114;2024-03-02T10:52:00;100125.13;;;16.56;45.37
64886;BME280;51514;52.206;5.114;2024-03-02T10:54:25;100126.88;;;16.95;45.01
64886;BME280;51514;52.206;5.114;2024-03-02T10:56:53;100126.41;;;16.98;44.46
64886;BME280;51514;52.206;5.114;2024-03-02T11:01:55;100108.09;;;17.19;41.46
64886;BME280;51514;52.206;5.114;2024-03-02T11:04:21;100119.69;;;17.39;43.57
64886;BME280;51514;52.206;5.114;2024-03-02T11:06:49;100115.22;;;17.44;44.09
64886;BME280;51514;52.206;5.114;2024-03-02T11:09:16;100128.41;;;17.47;43.39
64886;BME280;51514;52.206;5.114;2024-03-02T11:11:54;100113.94;;;17.78;41.51
64886;BME280;51514;52.206;5.114;2024-03-02T11:14:24;100116.72;;;17.72;42.17
64886;BME280;51514;52.206;5.114;2024-03-02T11:16:50;100117.59;;;17.66;42.19
64886;BME280;51514;52.206;5.114;2024-03-02T11:19:16;100120.13;;;17.67;42.46
64886;BME280;51514;52.206;5.114;2024-03-02T11:21:42;100117.28;;;17.80;40.60
64886;BME280;51514;52.206;5.114;2024-03-02T11:26:47;100123.75;;;17.30;40.70
64886;BME280;51514;52.206;5.114;2024-03-02T11:32:14;100115.28;;;17.06;41.11
64886;BME280;51514;52.206;5.114;2024-03-02T11:34:41;100107.34;;;17.05;41.72
64886;BME280;51514;52.206;5.114;2024-03-02T11:37:11;100110.69;;;17.00;42.47
64886;BME280;51514;52.206;5.114;2024-03-02T11:39:37;100109.56;;;16.83;41.60
64886;BME280;51514;52.206;5.114;2024-03-02T11:42:05;100111.59;;;16.94;41.43
64886;BME280;51514;52.206;5.114;2024-03-02T11:44:33;100105.47;;;16.48;43.93
64886;BME280;51514;52.206;5.114;2024-03-02T11:47:05;100107.31;;;16.60;42.68
64886;BME280;51514;52.206;5.114;2024-03-02T11:52:07;100103.91;;;16.20;44.49
64886;BME280;51514;52.206;5.114;2024-03-02T11:54:33;100108.09;;;16.16;45.40
64886;BME280;51514;52.206;5.114;2024-03-02T11:57:05;100105.22;;;15.91;44.75
64886;BME280;51514;52.206;5.114;2024-03-02T11:59:30;100099.19;;;15.56;45.54
64886;BME280;51514;52.206;5.114;2024-03-02T12:01:57;100106.88;;;15.40;45.28
64886;BME280;51514;52.206;5.114;2024-03-02T12:04:23;100097.25;;;15.11;46.31
64886;BME280;51514;52.206;5.114;2024-03-02T12:06:58;100101.38;;;14.93;46.13
64886;BME280;51514;52.206;5.114;2024-03-02T12:09:27;100110.31;;;14.74;47.39
64886;BME280;51514;52.206;5.114;2024-03-02T12:12:07;100093.66;;;14.36;47.19
64886;BME280;51514;52.206;5.114;2024-03-02T12:14:33;100088.50;;;14.48;47.83
64886;BME280;51514;52.206;5.114;2024-03-02T12:16:59;100082.41;;;14.39;48.71
64886;BME280;51514;52.206;5.114;2024-03-02T12:19:26;100072.84;;;14.43;49.41
64886;BME280;51514;52.206;5.114;2024-03-02T12:22:01;100075.09;;;14.40;47.07
64886;BME280;51514;52.206;5.114;2024-03-02T12:24:28;100075.63;;;14.22;48.66
64886;BME280;51514;52.206;5.114;2024-03-02T12:26:54;100045.16;;;14.20;48.23
64886;BME280;51514;52.206;5.114;2024-03-02T12:29:20;100043.22;;;14.07;48.61
64886;BME280;51514;52.206;5.114;2024-03-02T12:31:48;100051.13;;;14.02;48.46
64886;BME280;51514;52.206;5.114;2024-03-02T12:34:15;100045.53;;;14.10;49.15
64886;BME280;51514;52.206;5.114;2024-03-02T12:36:40;100052.56;;;13.98;46.03
64886;BME280;51514;52.206;5.114;2024-03-02T12:39:10;100045.84;;;13.87;46.98
64886;BME280;51514;52.206;5.114;2024-03-02T12:41:38;100052.47;;;13.85;47.16
64886;BME280;51514;52.206;5.114;2024-03-02T12:44:05;100039.78;;;13.85;48.31
64886;BME280;51514;52.206;5.114;2024-03-02T12:46:31;100031.88;;;13.84;48.01
64886;BME280;51514;52.206;5.114;2024-03-02T12:48:57;100027.47;;;13.83;48.20
64886;BME280;51514;52.206;5.114;2024-03-02T12:51:24;100049.16;;;13.83;47.61
64886;BME280;51514;52.206;5.114;2024-03-02T12:53:59;100041.59;;;13.72;47.93
64886;BME280;51514;52.206;5.114;2024-03-02T12:56:25;100032.91;;;13.83;47.36
64886;BME280;51514;52.206;5.114;2024-03-02T12:58:54;100030.19;;;13.83;49.86
64886;BME280;51514;52.206;5.114;2024-03-02T13:01:19;100044.22;;;13.93;48.78
64886;BME280;51514;52.206;5.114;2024-03-02T13:03:45;100044.88;;;14.02;47.28
64886;BME280;51514;52.206;5.114;2024-03-02T13:06:10;100035.06;;;14.01;47.45
64886;BME280;51514;52.206;5.114;2024-03-02T13:08:36;100034.22;;;14.00;47.37
64886;BME280;51514;52.206;5.114;2024-03-02T13:11:02;100029.06;;;14.05;47.72
64886;BME280;51514;52.206;5.114;2024-03-02T13:13:30;100021.34;;;14.09;48.30